sensor_id;sensor_type;location;lat;lon;timestamp;pressure;altitude;pressure_sealevel;temperature;humidity
31337;BME280;22846;42.654;23.314;2023-10-08T00:00:46;94944.38;;;27.72;39.36
31337;BME280;22846;42.654;23.314;2023-10-08T00:03:15;94949.13;;;27.72;39.31
31337;BME280;22846;42.654;23.314;2023-10-08T00:05:42;94945.94;;;27.73;39.52
31337;BME280;22846;42.654;23.314;2023-10-08T00:08:08;94934.63;;;27.71;39.66
31337;BME280;22846;42.654;23.314;2023-10-08T00:10:39;94924.97;;;27.67;39.80
31337;BME280;22846;42.654;23.314;2023-10-08T00:13:09;94932.66;;;27.72;39.85
31337;BME280;22846;42.654;23.314;2023-10-08T00:15:39;94927.31;;;27.68;39.39
31337;BME280;22846;42.654;23.314;2023-10-08T00:18:17;94923.63;;;27.71;39.26
31337;BME280;22846;42.654;23.314;2023-10-08T00:20:43;94925.16;;;27.72;39.37
31337;BME280;22846;42.654;23.314;2023-10-08T00:23:19;94926.38;;;27.71;39.56
31337;BME280;22846;42.654;23.314;2023-10-08T00:25:45;94920.13;;;27.71;39.63
31337;BME280;22846;42.654;23.314;2023-10-08T00:28:12;94916.31;;;27.68;39.59
31337;BME280;22846;42.654;23.314;2023-10-08T00:30:41;94913.84;;;27.70;39.67
31337;BME280;22846;42.654;23.314;2023-10-08T00:33:07;94915.84;;;27.70;39.51
31337;BME280;22846;42.654;23.314;2023-10-08T00:35:37;94912.31;;;27.69;39.75
31337;BME280;22846;42.654;23.314;2023-10-08T00:38:03;94912.66;;;27.71;39.95
31337;BME280;22846;42.654;23.314;2023-10-08T00:40:38;94917.06;;;27.69;39.82
31337;BME280;22846;42.654;23.314;2023-10-08T00:43:09;94915.06;;;27.69;39.90
31337;BME280;22846;42.654;23.314;2023-10-08T00:45:36;94908.38;;;27.70;39.94
31337;BME280;22846;42.654;23.314;2023-10-08T00:48:08;94907.75;;;27.66;39.99
31337;BME280;22846;42.654;23.314;2023-10-08T00:50:34;94902.13;;;27.70;40.02
31337;BME280;22846;42.654;23.314;2023-10-08T00:53:09;94910.38;;;27.70;39.92
31337;BME280;22846;42.654;23.314;2023-10-08T00:55:42;94909.59;;;27.69;39.67
31337;BME280;22846;42.654;23.314;2023-10-08T00:58:15;94907.75;;;27.66;39.91
31337;BME280;22846;42.654;23.314;2023-10-08T01:00:50;94895.84;;;27.69;40.33
31337;BME280;22846;42.654;23.314;2023-10-08T01:03:25;94898.72;;;27.66;40.01
31337;BME280;22846;42.654;23.314;2023-10-08T01:05:52;94895.09;;;27.69;39.98
31337;BME280;22846;42.654;23.314;2023-10-08T01:08:18;94897.53;;;27.67;40.00
31337;BME280;22846;42.654;23.314;2023-10-08T01:10:57;94899.06;;;27.68;40.38
31337;BME280;22846;42.654;23.314;2023-10-08T01:13:25;94894.34;;;27.68;40.51
31337;BME280;22846;42.654;23.314;2023-10-08T01:15:52;94893.56;;;27.68;40.07
31337;BME280;22846;42.654;23.314;2023-10-08T01:18:17;94890.22;;;27.64;39.99
31337;BME280;22846;42.654;23.314;2023-10-08T01:20:50;94893.56;;;27.68;40.34
31337;BME280;22846;42.654;23.314;2023-10-08T01:23:18;94885.78;;;27.66;40.29
31337;BME280;22846;42.654;23.314;2023-10-08T01:25:47;94883.59;;;27.61;40.30
31337;BME280;22846;42.654;23.314;2023-10-08T01:28:18;94885.94;;;27.63;40.25
31337;BME280;22846;42.654;23.314;2023-10-08T01:30:52;94883.19;;;27.63;40.19
31337;BME280;22846;42.654;23.314;2023-10-08T01:33:19;94897.53;;;27.67;40.18
31337;BME280;22846;42.654;23.314;2023-10-08T01:35:46;94894.91;;;27.63;40.69
31337;BME280;22846;42.654;23.314;2023-10-08T01:38:14;94900.72;;;27.65;39.87
31337;BME280;22846;42.654;23.314;2023-10-08T01:40:41;94902.69;;;27.65;40.19
31337;BME280;22846;42.654;23.314;2023-10-08T01:43:06;94908.66;;;27.63;40.04
31337;BME280;22846;42.654;23.314;2023-10-08T01:45:36;94894.28;;;27.59;40.03
31337;BME280;22846;42.654;23.314;2023-10-08T01:48:05;94907.44;;;27.64;40.61
31337;BME280;22846;42.654;23.314;2023-10-08T01:50:31;94898.44;;;27.64;40.11
31337;BME280;22846;42.654;23.314;2023-10-08T01:52:59;94910.19;;;27.64;40.35
31337;BME280;22846;42.654;23.314;2023-10-08T01:55:25;94904.00;;;27.60;39.76
31337;BME280;22846;42.654;23.314;2023-10-08T01:57:52;94904.38;;;27.62;40.10
31337;BME280;22846;42.654;23.314;2023-10-08T02:00:17;94905.91;;;27.63;39.98
31337;BME280;22846;42.654;23.314;2023-10-08T02:02:49;94903.16;;;27.63;40.48
31337;BME280;22846;42.654;23.314;2023-10-08T02:05:19;94898.13;;;27.62;40.43
31337;BME280;22846;42.654;23.314;2023-10-08T02:07:46;94908.31;;;27.61;40.14
31337;BME280;22846;42.654;23.314;2023-10-08T02:10:12;94907.13;;;27.62;40.54
31337;BME280;22846;42.654;23.314;2023-10-08T02:12:40;94894.56;;;27.61;40.09
31337;BME280;22846;42.654;23.314;2023-10-08T02:15:06;94895.16;;;27.56;40.24
31337;BME280;22846;42.654;23.314;2023-10-08T02:17:32;94899.31;;;27.61;40.25
31337;BME280;22846;42.654;23.314;2023-10-08T02:19:58;94898.53;;;27.60;40.21
31337;BME280;22846;42.654;23.314;2023-10-08T02:22:23;94904.81;;;27.61;40.21
31337;BME280;22846;42.654;23.314;2023-10-08T02:24:48;94891.22;;;27.57;40.25
31337;BME280;22846;42.654;23.314;2023-10-08T02:27:16;94891.53;;;27.59;40.59
31337;BME280;22846;42.654;23.314;2023-10-08T02:29:42;94889.22;;;27.58;40.07
31337;BME280;22846;42.654;23.314;2023-10-08T02:32:08;94875.19;;;27.56;40.39
31337;BME280;22846;42.654;23.314;2023-10-08T02:34:33;94874.41;;;27.55;40.03
31337;BME280;22846;42.654;23.314;2023-10-08T02:37:00;94884.50;;;27.58;40.26
31337;BME280;22846;42.654;23.314;2023-10-08T02:39:28;94877.47;;;27.57;40.11
31337;BME280;22846;42.654;23.314;2023-10-08T02:41:55;94882.97;;;27.57;40.11
31337;BME280;22846;42.654;23.314;2023-10-08T02:44:24;94876.28;;;27.58;40.01
31337;BME280;22846;42.654;23.314;2023-10-08T02:46:50;94878.69;;;27.56;40.38
31337;BME280;22846;42.654;23.314;2023-10-08T02:49:20;94873.34;;;27.53;40.26
31337;BME280;22846;42.654;23.314;2023-10-08T02:51:47;94881.44;;;27.56;40.39
31337;BME280;22846;42.654;23.314;2023-10-08T02:54:12;94886.94;;;27.56;40.58
31337;BME280;22846;42.654;23.314;2023-10-08T02:56:49;94886.63;;;27.54;40.34
31337;BME280;22846;42.654;23.314;2023-10-08T02:59:16;94890.28;;;27.60;40.27
31337;BME280;22846;42.654;23.314;2023-10-08T03:01:42;94883.53;;;27.52;40.22
31337;BME280;22846;42.654;23.314;2023-10-08T03:04:10;94897.16;;;27.56;40.34
31337;BME280;22846;42.654;23.314;2023-10-08T03:06:45;94892.88;;;27.55;40.33
31337;BME280;22846;42.654;23.314;2023-10-08T03:09:21;94894.09;;;27.54;40.52
31337;BME280;22846;42.654;23.314;2023-10-08T03:11:50;94900.34;;;27.54;40.39
31337;BME280;22846;42.654;23.314;2023-10-08T03:14:16;94900.34;;;27.54;40.67
31337;BME280;22846;42.654;23.314;2023-10-08T03:16:51;94882.63;;;27.46;40.54
31337;BME280;22846;42.654;23.314;2023-10-08T03:19:18;94885.09;;;27.53;40.45
31337;BME280;22846;42.654;23.314;2023-10-08T03:21:48;94886.28;;;27.52;40.33
31337;BME280;22846;42.654;23.314;2023-10-08T03:24:17;94887.81;;;27.53;40.70
31337;BME280;22846;42.654;23.314;2023-10-08T03:26:58;94882.47;;;27.50;40.72
31337;BME280;22846;42.654;23.314;2023-10-08T03:29:46;94882.34;;;27.53;40.53
31337;BME280;22846;42.654;23.314;2023-10-08T03:32:13;94862.66;;;27.46;40.75
31337;BME280;22846;42.654;23.314;2023-10-08T03:34:49;94869.22;;;27.48;40.27
31337;BME280;22846;42.654;23.314;2023-10-08T03:37:16;94877.16;;;27.55;40.33
31337;BME280;22846;42.654;23.314;2023-10-08T03:39:49;94871.81;;;27.52;40.40
31337;BME280;22846;42.654;23.314;2023-10-08T03:42:25;94865.56;;;27.51;40.63
31337;BME280;22846;42.654;23.314;2023-10-08T03:44:51;94862.94;;;27.48;40.41
31337;BME280;22846;42.654;23.314;2023-10-08T03:47:19;94867.53;;;27.51;40.33
31337;BME280;22846;42.654;23.314;2023-10-08T03:49:47;94859.44;;;27.47;40.58
31337;BME280;22846;42.654;23.314;2023-10-08T03:52:16;94866.78;;;27.50;40.34
31337;BME280;22846;42.654;23.314;2023-10-08T03:54:41;94843.56;;;27.42;40.48
31337;BME280;22846;42.654;23.314;2023-10-08T03:57:25;94854.25;;;27.49;40.67
31337;BME280;22846;42.654;23.314;2023-10-08T04:00:07;94850.31;;;27.50;40.97
31337;BME280;22846;42.654;23.314;2023-10-08T04:02:36;94852.41;;;27.46;40.80
31337;BME280;22846;42.654;23.314;2023-10-08T04:05:11;94854.41;;;27.46;40.83
31337;BME280;22846;42.654;23.314;2023-10-08T04:07:45;94852.72;;;27.48;40.80
31337;BME280;22846;42.654;23.314;2023-10-08T04:10:29;94847.25;;;27.48;41.19
31337;BME280;22846;42.654;23.314;2023-10-08T04:13:07;94841.75;;;27.48;40.77
31337;BME280;22846;42.654;23.314;2023-10-08T04:15:39;94839.47;;;27.47;40.44
31337;BME280;22846;42.654;23.314;2023-10-08T04:18:11;94857.91;;;27.46;40.60
31337;BME280;22846;42.654;23.314;2023-10-08T04:20:36;94838.97;;;27.39;40.79
31337;BME280;22846;42.654;23.314;2023-10-08T04:23:09;94857.91;;;27.46;40.92
31337;BME280;22846;42.654;23.314;2023-10-08T04:25:43;94846.94;;;27.46;41.04
31337;BME280;22846;42.654;23.314;2023-10-08T04:28:08;94853.19;;;27.47;40.98
31337;BME280;22846;42.654;23.314;2023-10-08T04:30:39;94844.19;;;27.46;40.67
31337;BME280;22846;42.654;23.314;2023-10-08T04:33:07;94837.28;;;27.42;41.10
31337;BME280;22846;42.654;23.314;2023-10-08T04:35:41;94848.91;;;27.46;41.17
31337;BME280;22846;42.654;23.314;2023-10-08T04:38:27;94848.13;;;27.45;40.52
31337;BME280;22846;42.654;23.314;2023-10-08T04:40:54;94849.34;;;27.44;41.20
31337;BME280;22846;42.654;23.314;2023-10-08T04:43:21;94851.34;;;27.44;41.15
31337;BME280;22846;42.654;23.314;2023-10-08T04:45:57;94852.56;;;27.43;40.91
31337;BME280;22846;42.654;23.314;2023-10-08T04:48:23;94859.59;;;27.44;40.96
31337;BME280;22846;42.654;23.314;2023-10-08T04:50:49;94861.88;;;27.45;41.25
31337;BME280;22846;42.654;23.314;2023-10-08T04:53:34;94862.78;;;27.42;41.14
31337;BME280;22846;42.654;23.314;2023-10-08T04:56:05;94866.28;;;27.43;40.88
31337;BME280;22846;42.654;23.314;2023-10-08T04:58:34;94867.03;;;27.43;40.74
31337;BME280;22846;42.654;23.314;2023-10-08T05:01:02;94856.97;;;27.40;40.94
31337;BME280;22846;42.654;23.314;2023-10-08T05:03:43;94863.06;;;27.44;41.01
31337;BME280;22846;42.654;23.314;2023-10-08T05:06:21;94854.38;;;27.37;41.22
31337;BME280;22846;42.654;23.314;2023-10-08T05:09:06;94859.25;;;27.42;41.34
31337;BME280;22846;42.654;23.314;2023-10-08T05:11:37;94863.72;;;27.48;41.63
31337;BME280;22846;42.654;23.314;2023-10-08T05:14:16;94872.41;;;27.47;41.80
31337;BME280;22846;42.654;23.314;2023-10-08T05:16:56;94864.59;;;27.45;41.95
31337;BME280;22846;42.654;23.314;2023-10-08T05:19:48;94867.69;;;27.47;41.43
31337;BME280;22846;42.654;23.314;2023-10-08T05:22:23;94873.91;;;27.48;40.94
31337;BME280;22846;42.654;23.314;2023-10-08T05:24:58;94867.22;;;27.49;40.52
31337;BME280;22846;42.654;23.314;2023-10-08T05:27:39;94864.03;;;27.50;40.52
31337;BME280;22846;42.654;23.314;2023-10-08T05:30:17;94873.03;;;27.51;40.63
31337;BME280;22846;42.654;23.314;2023-10-08T05:33:02;94875.31;;;27.52;40.76
31337;BME280;22846;42.654;23.314;2023-10-08T05:35:45;94879.16;;;27.55;40.92
31337;BME280;22846;42.654;23.314;2023-10-08T05:38:16;94882.66;;;27.55;41.13
31337;BME280;22846;42.654;23.314;2023-10-08T05:40:48;94881.75;;;27.58;41.04
31337;BME280;22846;42.654;23.314;2023-10-08T05:43:33;94884.94;;;27.57;41.25
31337;BME280;22846;42.654;23.314;2023-10-08T05:46:28;94872.75;;;27.58;41.26
31337;BME280;22846;42.654;23.314;2023-10-08T05:48:56;94887.91;;;27.62;41.05
31337;BME280;22846;42.654;23.314;2023-10-08T05:51:28;94885.94;;;27.63;41.22
31337;BME280;22846;42.654;23.314;2023-10-08T05:54:30;94896.78;;;27.66;41.28
31337;BME280;22846;42.654;23.314;2023-10-08T05:57:07;94898.31;;;27.67;41.08
31337;BME280;22846;42.654;23.314;2023-10-08T05:59:50;94886.41;;;27.70;41.40
31337;BME280;22846;42.654;23.314;2023-10-08T06:02:28;94891.13;;;27.70;41.43
31337;BME280;22846;42.654;23.314;2023-10-08T06:07:40;94883.50;;;27.74;41.56
31337;BME280;22846;42.654;23.314;2023-10-08T06:10:31;94892.53;;;27.74;41.64
31337;BME280;22846;42.654;23.314;2023-10-08T06:15:44;94882.63;;;27.77;41.52
31337;BME280;22846;42.654;23.314;2023-10-08T06:18:27;94865.66;;;27.78;41.90
31337;BME280;22846;42.654;23.314;2023-10-08T06:20:57;94868.88;;;27.77;41.81
31337;BME280;22846;42.654;23.314;2023-10-08T06:23:30;94875.00;;;27.81;41.67
31337;BME280;22846;42.654;23.314;2023-10-08T06:26:00;94876.06;;;27.83;41.74
31337;BME280;22846;42.654;23.314;2023-10-08T06:28:31;94861.88;;;27.85;41.68
31337;BME280;22846;42.654;23.314;2023-10-08T06:31:01;94864.63;;;27.85;41.85
31337;BME280;22846;42.654;23.314;2023-10-08T06:33:28;94879.44;;;27.87;41.83
31337;BME280;22846;42.654;23.314;2023-10-08T06:36:01;94875.94;;;27.87;41.72
31337;BME280;22846;42.654;23.314;2023-10-08T06:38:40;94879.75;;;27.89;41.75
31337;BME280;22846;42.654;23.314;2023-10-08T06:41:07;94880.06;;;27.91;41.82
31337;BME280;22846;42.654;23.314;2023-10-08T06:43:42;94874.91;;;27.93;41.87
31337;BME280;22846;42.654;23.314;2023-10-08T06:46:12;94868.28;;;27.91;41.91
31337;BME280;22846;42.654;23.314;2023-10-08T06:48:39;94882.22;;;27.96;41.70
31337;BME280;22846;42.654;23.314;2023-10-08T06:51:08;94875.19;;;27.95;41.51
31337;BME280;22846;42.654;23.314;2023-10-08T06:53:42;94871.22;;;27.96;41.61
31337;BME280;22846;42.654;23.314;2023-10-08T06:56:08;94877.34;;;28.00;41.64
31337;BME280;22846;42.654;23.314;2023-10-08T06:58:35;94859.31;;;27.99;41.47
31337;BME280;22846;42.654;23.314;2023-10-08T07:01:01;94867.88;;;28.01;41.97
31337;BME280;22846;42.654;23.314;2023-10-08T07:03:35;94865.88;;;28.02;41.68
31337;BME280;22846;42.654;23.314;2023-10-08T07:06:03;94873.97;;;28.05;41.81
31337;BME280;22846;42.654;23.314;2023-10-08T07:08:42;94868.50;;;28.05;41.74
31337;BME280;22846;42.654;23.314;2023-10-08T07:11:12;94861.94;;;28.03;41.80
31337;BME280;22846;42.654;23.314;2023-10-08T07:13:37;94858.28;;;28.06;41.47
31337;BME280;22846;42.654;23.314;2023-10-08T07:16:05;94864.53;;;28.06;41.50
31337;BME280;22846;42.654;23.314;2023-10-08T07:18:36;94858.28;;;28.06;41.50
31337;BME280;22846;42.654;23.314;2023-10-08T07:21:02;94854.75;;;28.05;41.94
31337;BME280;22846;42.654;23.314;2023-10-08T07:23:37;94861.78;;;28.06;41.38
31337;BME280;22846;42.654;23.314;2023-10-08T07:26:18;94853.53;;;28.06;41.64
31337;BME280;22846;42.654;23.314;2023-10-08T07:28:49;94845.75;;;28.05;41.59
31337;BME280;22846;42.654;23.314;2023-10-08T07:31:20;94842.41;;;28.10;42.05
31337;BME280;22846;42.654;23.314;2023-10-08T07:33:54;94845.47;;;28.12;42.50
31337;BME280;22846;42.654;23.314;2023-10-08T07:36:26;94837.84;;;28.16;42.97
31337;BME280;22846;42.654;23.314;2023-10-08T07:38:52;94836.47;;;28.20;42.84
31337;BME280;22846;42.654;23.314;2023-10-08T07:41:18;94817.53;;;28.22;42.63
31337;BME280;22846;42.654;23.314;2023-10-08T07:43:48;94822.88;;;28.25;42.70
31337;BME280;22846;42.654;23.314;2023-10-08T07:46:27;94824.88;;;28.25;38.73
31337;BME280;22846;42.654;23.314;2023-10-08T07:48:56;94822.88;;;28.25;35.49
31337;BME280;22846;42.654;23.314;2023-10-08T07:51:23;94812.69;;;28.26;35.12
31337;BME280;22846;42.654;23.314;2023-10-08T07:53:49;94799.97;;;28.19;32.22
31337;BME280;22846;42.654;23.314;2023-10-08T07:56:19;94813.91;;;28.25;34.21
31337;BME280;22846;42.654;23.314;2023-10-08T07:58:45;94815.91;;;28.24;34.91
31337;BME280;22846;42.654;23.314;2023-10-08T08:01:10;94808.41;;;28.25;34.54
31337;BME280;22846;42.654;23.314;2023-10-08T08:03:39;94801.34;;;28.15;34.24
31337;BME280;22846;42.654;23.314;2023-10-08T08:06:08;94804.59;;;28.22;35.00
31337;BME280;22846;42.654;23.314;2023-10-08T08:08:35;94806.56;;;28.22;33.39
31337;BME280;22846;42.654;23.314;2023-10-08T08:11:02;94796.66;;;28.24;33.88
31337;BME280;22846;42.654;23.314;2023-10-08T08:13:35;94797.41;;;28.25;32.42
31337;BME280;22846;42.654;23.314;2023-10-08T08:16:01;94798.94;;;28.26;31.77
31337;BME280;22846;42.654;23.314;2023-10-08T08:18:47;94784.88;;;28.24;32.44
31337;BME280;22846;42.654;23.314;2023-10-08T08:21:14;94791.56;;;28.14;30.88
31337;BME280;22846;42.654;23.314;2023-10-08T08:23:43;94778.44;;;28.09;30.43
31337;BME280;22846;42.654;23.314;2023-10-08T08:26:16;94780.56;;;28.05;29.84
31337;BME280;22846;42.654;23.314;2023-10-08T08:28:55;94783.63;;;28.07;29.47
31337;BME280;22846;42.654;23.314;2023-10-08T08:31:23;94768.50;;;28.03;28.86
31337;BME280;22846;42.654;23.314;2023-10-08T08:33:48;94769.88;;;27.98;28.92
31337;BME280;22846;42.654;23.314;2023-10-08T08:36:26;94763.91;;;28.00;28.11
31337;BME280;22846;42.654;23.314;2023-10-08T08:38:52;94772.63;;;27.98;27.91
31337;BME280;22846;42.654;23.314;2023-10-08T08:41:19;94767.75;;;27.93;26.56
31337;BME280;22846;42.654;23.314;2023-10-08T08:43:50;94769.56;;;27.87;27.32
31337;BME280;22846;42.654;23.314;2023-10-08T08:46:30;94765.88;;;27.81;27.05
31337;BME280;22846;42.654;23.314;2023-10-08T08:49:00;94767.25;;;27.77;26.91
31337;BME280;22846;42.654;23.314;2023-10-08T08:51:28;94763.44;;;27.74;26.04
31337;BME280;22846;42.654;23.314;2023-10-08T08:53:55;94755.22;;;27.74;26.76
31337;BME280;22846;42.654;23.314;2023-10-08T08:56:21;94765.41;;;27.74;26.82
31337;BME280;22846;42.654;23.314;2023-10-08T08:58:49;94754.00;;;27.75;29.63
31337;BME280;22846;42.654;23.314;2023-10-08T09:01:16;94764.19;;;27.75;29.68
31337;BME280;22846;42.654;23.314;2023-10-08T09:03:43;94758.44;;;27.82;29.35
31337;BME280;22846;42.654;23.314;2023-10-08T09:06:08;94754.91;;;27.81;29.79
31337;BME280;22846;42.654;23.314;2023-10-08T09:08:35;94758.28;;;27.85;29.31
31337;BME280;22846;42.654;23.314;2023-10-08T09:11:01;94754.44;;;27.92;29.95
31337;BME280;22846;42.654;23.314;2023-10-08T09:13:28;94766.53;;;27.94;29.78
31337;BME280;22846;42.654;23.314;2023-10-08T09:16:07;94764.38;;;27.98;29.86
31337;BME280;22846;42.654;23.314;2023-10-08T09:18:33;94753.53;;;27.95;30.41
31337;BME280;22846;42.654;23.314;2023-10-08T09:21:14;94756.44;;;28.00;31.13
31337;BME280;22846;42.654;23.314;2023-10-08T09:23:41;94757.03;;;28.04;31.21
31337;BME280;22846;42.654;23.314;2023-10-08T09:26:16;94754.19;;;28.08;31.55
31337;BME280;22846;42.654;23.314;2023-10-08T09:28:45;94747.44;;;28.09;31.91
31337;BME280;22846;42.654;23.314;2023-10-08T09:31:15;94749.28;;;28.12;32.22
31337;BME280;22846;42.654;23.314;2023-10-08T09:33:43;94738.75;;;28.10;32.35
31337;BME280;22846;42.654;23.314;2023-10-08T09:36:09;94752.66;;;28.16;32.99
31337;BME280;22846;42.654;23.314;2023-10-08T09:38:41;94739.66;;;28.16;32.77
31337;BME280;22846;42.654;23.314;2023-10-08T09:41:09;94732.31;;;28.13;33.10
31337;BME280;22846;42.654;23.314;2023-10-08T09:43:34;94735.22;;;28.18;33.11
31337;BME280;22846;42.654;23.314;2023-10-08T09:46:14;94733.25;;;28.19;33.90
31337;BME280;22846;42.654;23.314;2023-10-08T09:48:41;94720.41;;;28.16;33.36
31337;BME280;22846;42.654;23.314;2023-10-08T09:51:10;94718.72;;;28.18;34.06
31337;BME280;22846;42.654;23.314;2023-10-08T09:53:52;94719.81;;;28.21;34.14
31337;BME280;22846;42.654;23.314;2023-10-08T09:56:22;94730.38;;;28.22;33.75
31337;BME280;22846;42.654;23.314;2023-10-08T09:58:49;94714.00;;;28.19;34.64
31337;BME280;22846;42.654;23.314;2023-10-08T10:01:18;94722.56;;;28.21;34.49
31337;BME280;22846;42.654;23.314;2023-10-08T10:03:45;94709.25;;;28.19;34.38
31337;BME280;22846;42.654;23.314;2023-10-08T10:06:15;94721.78;;;28.20;34.44
31337;BME280;22846;42.654;23.314;2023-10-08T10:08:43;94720.91;;;28.23;34.67
31337;BME280;22846;42.654;23.314;2023-10-08T10:11:08;94713.41;;;28.24;34.95
31337;BME280;22846;42.654;23.314;2023-10-08T10:13:41;94710.66;;;28.24;34.94
31337;BME280;22846;42.654;23.314;2023-10-08T10:16:06;94707.28;;;28.20;35.07
31337;BME280;22846;42.654;23.314;2023-10-08T10:18:33;94702.41;;;28.24;35.19
31337;BME280;22846;42.654;23.314;2023-10-08T10:26:03;94688.06;;;28.20;35.24
31337;BME280;22846;42.654;23.314;2023-10-08T10:28:29;94695.69;;;28.25;35.28
31337;BME280;22846;42.654;23.314;2023-10-08T10:30:55;94687.47;;;28.25;35.52
31337;BME280;22846;42.654;23.314;2023-10-08T10:33:31;94681.66;;;28.23;35.48
31337;BME280;22846;42.654;23.314;2023-10-08T10:36:00;94686.97;;;28.26;35.72
31337;BME280;22846;42.654;23.314;2023-10-08T10:38:26;94676.00;;;28.26;35.50
31337;BME280;22846;42.654;23.314;2023-10-08T10:40:51;94676.00;;;28.26;35.52
31337;BME280;22846;42.654;23.314;2023-10-08T10:43:24;94679.81;;;28.29;35.80
31337;BME280;22846;42.654;23.314;2023-10-08T10:46:00;94672.19;;;28.24;35.86
31337;BME280;22846;42.654;23.314;2023-10-08T10:48:45;94671.59;;;28.29;35.79
31337;BME280;22846;42.654;23.314;2023-10-08T10:51:22;94673.56;;;28.28;35.93
31337;BME280;22846;42.654;23.314;2023-10-08T10:53:48;94670.06;;;28.28;36.02
31337;BME280;22846;42.654;23.314;2023-10-08T10:56:27;94669.59;;;28.29;35.93
31337;BME280;22846;42.654;23.314;2023-10-08T10:59:01;94668.06;;;28.28;36.42
31337;BME280;22846;42.654;23.314;2023-10-08T11:01:40;94660.88;;;28.31;36.09
31337;BME280;22846;42.654;23.314;2023-10-08T11:04:18;94653.84;;;28.30;36.48
31337;BME280;22846;42.654;23.314;2023-10-08T11:06:47;94667.31;;;28.28;36.32
31337;BME280;22846;42.654;23.314;2023-10-08T11:09:13;94655.09;;;28.29;36.34
31337;BME280;22846;42.654;23.314;2023-10-08T11:11:56;94648.22;;;28.33;36.50
31337;BME280;22846;42.654;23.314;2023-10-08T11:14:23;94649.88;;;28.31;36.14
31337;BME280;22846;42.654;23.314;2023-10-08T11:16:50;94647.59;;;28.29;36.53
31337;BME280;22846;42.654;23.314;2023-10-08T11:19:19;94639.97;;;28.24;36.44
31337;BME280;22846;42.654;23.314;2023-10-08T11:21:51;94641.78;;;28.27;36.92
31337;BME280;22846;42.654;23.314;2023-10-08T11:24:33;94637.81;;;28.28;36.59
31337;BME280;22846;42.654;23.314;2023-10-08T11:27:02;94633.41;;;28.22;37.01
31337;BME280;22846;42.654;23.314;2023-10-08T11:29:49;94637.06;;;28.28;36.99
31337;BME280;22846;42.654;23.314;2023-10-08T11:32:23;94628.34;;;28.29;36.78
31337;BME280;22846;42.654;23.314;2023-10-08T11:34:59;94625.78;;;28.26;36.88
31337;BME280;22846;42.654;23.314;2023-10-08T11:37:29;94627.28;;;28.27;37.21
31337;BME280;22846;42.654;23.314;2023-10-08T11:39:56;94625.00;;;28.25;37.27
31337;BME280;22846;42.654;23.314;2023-10-08T11:42:25;94628.81;;;28.28;37.27
31337;BME280;22846;42.654;23.314;2023-10-08T11:44:56;94623.31;;;28.28;37.27
31337;BME280;22846;42.654;23.314;2023-10-08T11:47:27;94625.28;;;28.27;37.11
31337;BME280;22846;42.654;23.314;2023-10-08T11:50:01;94621.78;;;28.27;37.24
31337;BME280;22846;42.654;23.314;2023-10-08T11:52:39;94625.28;;;28.27;37.64
31337;BME280;22846;42.654;23.314;2023-10-08T11:55:08;94609.75;;;28.24;37.75
31337;BME280;22846;42.654;23.314;2023-10-08T11:57:34;94634.00;;;28.26;37.47
31337;BME280;22846;42.654;23.314;2023-10-08T12:00:04;94634.00;;;28.26;37.68
31337;BME280;22846;42.654;23.314;2023-10-08T12:02:47;94628.50;;;28.26;37.27
31337;BME280;22846;42.654;23.314;2023-10-08T12:05:13;94622.25;;;28.25;37.58
31337;BME280;22846;42.654;23.314;2023-10-08T12:07:47;94623.50;;;28.24;37.47
31337;BME280;22846;42.654;23.314;2023-10-08T12:10:14;94620.75;;;28.24;37.54
31337;BME280;22846;42.654;23.314;2023-10-08T12:12:41;94629.00;;;28.24;37.88
31337;BME280;22846;42.654;23.314;2023-10-08T12:15:07;94620.44;;;28.22;38.18
31337;BME280;22846;42.654;23.314;2023-10-08T12:17:34;94617.69;;;28.22;37.83
31337;BME280;22846;42.654;23.314;2023-10-08T12:20:08;94619.66;;;28.22;38.06
31337;BME280;22846;42.654;23.314;2023-10-08T12:22:49;94619.34;;;28.20;38.32
31337;BME280;22846;42.654;23.314;2023-10-08T12:25:15;94618.13;;;28.21;37.84
31337;BME280;22846;42.654;23.314;2023-10-08T12:27:40;94625.94;;;28.22;38.33
31337;BME280;22846;42.654;23.314;2023-10-08T12:30:06;94626.69;;;28.23;38.33
31337;BME280;22846;42.654;23.314;2023-10-08T12:32:36;94624.41;;;28.21;38.18
31337;BME280;22846;42.654;23.314;2023-10-08T12:35:08;94620.75;;;28.24;38.33
31337;BME280;22846;42.654;23.314;2023-10-08T12:37:39;94609.44;;;28.22;38.34
31337;BME280;22846;42.654;23.314;2023-10-08T12:40:07;94629.75;;;28.25;38.83
31337;BME280;22846;42.654;23.314;2023-10-08T12:42:49;94623.63;;;28.21;38.77
31337;BME280;22846;42.654;23.314;2023-10-08T12:45:15;94636.47;;;28.24;38.42
31337;BME280;22846;42.654;23.314;2023-10-08T12:47:52;94610.50;;;28.16;38.41
31337;BME280;22846;42.654;23.314;2023-10-08T12:50:18;94616.91;;;28.22;38.70
31337;BME280;22846;42.654;23.314;2023-10-08T12:53:04;94608.97;;;28.24;38.68
31337;BME280;22846;42.654;23.314;2023-10-08T12:55:30;94620.44;;;28.22;38.53
31337;BME280;22846;42.654;23.314;2023-10-08T12:57:56;94607.91;;;28.21;38.61
31337;BME280;22846;42.654;23.314;2023-10-08T13:00:31;94607.56;;;28.19;38.74
31337;BME280;22846;42.654;23.314;2023-10-08T13:02:57;94619.34;;;28.20;38.74
31337;BME280;22846;42.654;23.314;2023-10-08T13:05:23;94604.53;;;28.17;38.96
31337;BME280;22846;42.654;23.314;2023-10-08T13:07:56;94603.78;;;28.17;39.04
31337;BME280;22846;42.654;23.314;2023-10-08T13:10:24;94593.84;;;28.19;38.73
31337;BME280;22846;42.654;23.314;2023-10-08T13:12:51;94613.72;;;28.23;38.72
31337;BME280;22846;42.654;23.314;2023-10-08T13:15:17;94591.88;;;28.20;38.60
31337;BME280;22846;42.654;23.314;2023-10-08T13:17:42;94603.31;;;28.27;38.58
31337;BME280;22846;42.654;23.314;2023-10-08T13:20:17;94597.06;;;28.27;39.03